createdAt,value
2016-04-12T14:00:15.692Z,24.26
2016-04-12T14:01:15.679Z,24.4
2016-04-12T14:02:15.728Z,24.39
2016-04-12T14:03:15.668Z,24.33
2016-04-12T14:04:15.812Z,24.17
2016-04-12T14:05:15.690Z,24.03
2016-04-12T14:06:15.677Z,24.03
2016-04-12T14:07:15.756Z,23.99
2016-04-12T14:08:15.728Z,23.84
2016-04-12T14:09:15.731Z,23.91
2016-04-12T14:10:15.859Z,23.78
2016-04-12T14:11:15.847Z,23.91
2016-04-12T14:12:15.865Z,23.88
2016-04-12T14:13:15.820Z,23.91
2016-04-12T14:14:15.948Z,23.84
2016-04-12T14:15:16.310Z,23.87
2016-04-12T14:16:16.453Z,23.77
2016-04-12T14:17:16.158Z,23.74
2016-04-12T14:18:15.974Z,23.71
2016-04-12T14:19:16.633Z,23.73
2016-04-12T14:20:16.229Z,23.69
2016-04-12T14:21:16.202Z,23.73
2016-04-12T14:22:16.172Z,23.84
2016-04-12T14:23:16.144Z,23.71
2016-04-12T14:24:16.319Z,23.78
2016-04-12T14:25:17.259Z,23.84
2016-04-12T14:26:16.199Z,24.05
2016-04-12T14:27:16.265Z,23.92
2016-04-12T14:28:16.235Z,23.4
2016-04-12T14:29:16.177Z,23.24
2016-04-12T14:30:16.366Z,23.28
2016-04-12T14:31:16.260Z,23.4
2016-04-12T14:32:16.200Z,23.43
2016-04-12T14:33:16.624Z,23.47
2016-04-12T14:34:16.643Z,23.51
2016-04-12T14:35:16.348Z,23.54
2016-04-12T14:36:16.367Z,23.43
2016-04-12T14:37:16.431Z,23.5
2016-04-12T14:38:17.153Z,23.48
2016-04-12T14:39:16.890Z,23.55
2016-04-12T14:40:16.393Z,23.5
2016-04-12T14:41:16.428Z,23.41
2016-04-12T14:42:16.461Z,23.37
2016-04-12T14:43:16.745Z,23.4
2016-04-12T14:44:16.669Z,23.28
2016-04-12T14:45:16.625Z,23.41
2016-04-12T14:46:16.566Z,23.25
2016-04-12T14:47:16.614Z,23.27
2016-04-12T14:48:16.555Z,23.2
2016-04-12T14:49:16.574Z,23.31
2016-04-12T14:50:16.732Z,23.23
2016-04-12T14:51:16.922Z,23.24
2016-04-12T14:52:16.988Z,23.25
2016-04-12T14:53:16.913Z,23.21
2016-04-12T14:54:16.712Z,23.15
2016-04-12T14:55:17.340Z,23.18
2016-04-12T14:56:16.967Z,23.09
2016-04-12T14:57:16.782Z,23.02
2016-04-12T14:58:16.848Z,22.98
2016-04-12T14:59:16.804Z,23.1
2016-04-12T15:00:16.822Z,23.02
2016-04-12T15:01:16.966Z,23.15
2016-04-12T15:02:16.874Z,23.13
2016-04-12T15:03:17.471Z,23.05
2016-04-12T15:04:17.223Z,23.12
2016-04-12T15:05:17.210Z,23.15
2016-04-12T15:06:16.901Z,23.18
2016-04-12T15:07:16.981Z,23.17
2016-04-12T15:08:17.078Z,23.2
2016-04-12T15:09:17.017Z,23.25
2016-04-12T15:10:17.411Z,23.25
2016-04-12T15:11:16.992Z,23.24
2016-04-12T15:12:17.089Z,23.24
2016-04-12T15:13:17.045Z,23.31
2016-04-12T15:14:19.375Z,23.21
2016-04-12T15:15:17.175Z,23.39
2016-04-12T15:16:17.177Z,23.44
2016-04-12T15:17:17.149Z,23.34
2016-04-12T15:18:17.136Z,23.28
2016-04-12T15:19:17.169Z,23.28
2016-04-12T15:20:18.578Z,23.4
2016-04-12T15:21:18.112Z,23.34
2016-04-12T15:22:17.365Z,23.23
2016-04-12T15:23:17.336Z,23.25
2016-04-12T15:24:17.277Z,23.2
2016-04-12T15:25:17.421Z,23.32
2016-04-12T15:26:17.329Z,23.32
2016-04-12T15:27:22.129Z,23.31
2016-04-12T15:28:17.412Z,23.32
2016-04-12T15:29:17.634Z,23.32
2016-04-12T15:30:17.559Z,23.32
2016-04-12T15:31:17.765Z,23.25
2016-04-12T15:32:17.471Z,23.28
2016-04-12T15:33:17.458Z,23.36
2016-04-12T15:34:17.538Z,23.39
2016-04-12T15:35:17.557Z,23.23
2016-04-12T15:36:17.543Z,23.31
2016-04-12T15:37:17.687Z,23.34
2016-04-12T15:38:17.549Z,23.28
2016-04-12T15:39:17.583Z,23.34
2016-04-12T15:40:17.664Z,23.37
2016-04-12T15:41:17.666Z,23.4
2016-04-12T15:42:17.637Z,23.4
2016-04-12T15:43:17.812Z,23.31
2016-04-12T15:44:17.690Z,23.39
2016-04-12T15:45:17.803Z,23.37
2016-04-12T15:46:17.930Z,23.39
2016-04-12T15:47:17.792Z,23.58
2016-04-12T15:48:17.810Z,23.39
2016-04-12T15:49:18.125Z,23.28
2016-04-12T15:50:18.316Z,23.23
2016-04-12T15:51:18.146Z,23.21
2016-04-12T15:52:18.180Z,23.12
2016-04-12T15:53:18.370Z,23.08
2016-04-12T15:54:18.577Z,23.06
2016-04-12T15:55:20.266Z,23.08
2016-04-12T15:56:19.582Z,23.06
2016-04-12T15:57:20.694Z,23.06
2016-04-12T15:58:17.963Z,22.93
2016-04-12T15:59:18.027Z,22.94
2016-04-12T16:00:18.265Z,23.03
2016-04-12T16:01:18.142Z,23.02
2016-04-12T16:02:18.145Z,23.05
2016-04-12T16:03:18.773Z,23.02
2016-04-12T16:04:18.557Z,22.94
2016-04-12T16:05:18.716Z,22.93
2016-04-12T16:06:18.656Z,23.05
2016-04-12T16:07:18.409Z,23.03
2016-04-12T16:08:19.114Z,23.03
2016-04-12T16:09:18.117Z,23.08
2016-04-12T16:10:18.354Z,23.06
2016-04-12T16:11:18.278Z,23.09
2016-04-12T16:12:18.343Z,23
2016-04-12T16:13:18.517Z,23.05
2016-04-12T16:14:18.411Z,23.18
2016-04-12T16:15:18.258Z,23.03
2016-04-12T16:16:18.386Z,23.09
2016-04-12T16:17:18.857Z,23.09
2016-04-12T16:18:19.422Z,23.02
2016-04-12T16:19:21.862Z,23.05
2016-04-12T16:20:19.114Z,23.06
2016-04-12T16:21:20.977Z,23.06
2016-04-12T16:22:21.619Z,23.17
2016-04-12T16:23:18.607Z,23.08
2016-04-12T16:24:18.579Z,23.05
2016-04-12T16:25:18.565Z,22.96
2016-04-12T16:26:18.631Z,23.05
2016-04-12T16:27:18.665Z,23
2016-04-12T16:28:18.871Z,23.05
2016-04-12T16:29:18.827Z,22.98
2016-04-12T16:30:19.361Z,23
2016-04-12T16:31:18.707Z,22.88
2016-04-12T16:32:18.694Z,22.93
2016-04-12T16:33:18.712Z,22.94
2016-04-12T16:34:18.699Z,22.9
2016-04-12T16:35:18.905Z,22.87
2016-04-12T16:36:18.893Z,22.81
2016-04-12T16:37:18.833Z,22.85
2016-04-12T16:38:18.929Z,22.83
2016-04-12T16:39:19.010Z,22.81
2016-04-12T16:40:19.012Z,22.88
2016-04-12T16:41:19.000Z,22.9
2016-04-12T16:42:18.892Z,22.83
2016-04-12T16:43:19.176Z,22.76
2016-04-12T16:44:18.945Z,22.69
2016-04-12T16:45:19.338Z,22.8
2016-04-12T16:46:19.341Z,22.76
2016-04-12T16:47:19.078Z,22.78
2016-04-12T16:48:19.534Z,22.7
2016-04-12T16:49:19.295Z,22.75
2016-04-12T16:50:21.010Z,22.65
2016-04-12T16:51:19.882Z,22.69
2016-04-12T16:52:20.269Z,22.65
2016-04-12T16:53:19.749Z,22.6
2016-04-12T16:54:19.627Z,22.65
2016-04-12T16:55:21.503Z,22.66
2016-04-12T16:56:20.083Z,22.57
2016-04-12T16:57:20.085Z,22.55
2016-04-12T16:58:19.477Z,22.7
2016-04-12T16:59:19.689Z,22.65
2016-04-12T17:00:19.900Z,22.59
2016-04-12T17:01:20.377Z,22.63
2016-04-12T17:02:19.697Z,22.7
2016-04-12T17:03:19.783Z,22.48
2016-04-12T17:04:19.601Z,22.53
2016-04-12T17:05:19.621Z,22.62
2016-04-12T17:06:19.719Z,22.47
2016-04-12T17:07:19.693Z,22.65
2016-04-12T17:08:19.651Z,22.59
2016-04-12T17:09:19.731Z,22.59
2016-04-12T17:10:19.751Z,22.51
2016-04-12T17:11:19.738Z,22.5
2016-04-12T17:12:19.944Z,22.54
2016-04-12T17:13:20.152Z,22.63
2016-04-12T17:14:19.858Z,22.55
2016-04-12T17:15:19.875Z,22.62
2016-04-12T17:16:20.222Z,22.65
2016-04-12T17:17:20.083Z,22.7
2016-04-12T17:18:20.133Z,22.66
2016-04-12T17:19:20.121Z,22.69
2016-04-12T17:20:20.123Z,22.75
2016-04-12T17:21:19.954Z,22.76
2016-04-12T17:22:20.176Z,22.91
2016-04-12T17:23:20.069Z,22.96
2016-04-12T17:24:20.072Z,22.93
2016-04-12T17:25:20.027Z,23.23
2016-04-12T17:26:20.062Z,23.1
2016-04-12T17:27:20.065Z,23.02
2016-04-12T17:28:20.082Z,22.83
2016-04-12T17:29:20.101Z,22.75
2016-04-12T17:30:20.134Z,22.75
2016-04-12T17:31:20.153Z,22.7
2016-04-12T17:32:20.156Z,22.73
2016-04-12T17:33:20.206Z,22.7
2016-04-12T17:34:20.239Z,22.76
2016-04-12T17:35:20.242Z,22.65
2016-04-12T17:36:20.245Z,22.65
2016-04-12T17:37:20.279Z,22.62
2016-04-12T17:38:20.344Z,22.6
2016-04-12T17:39:20.315Z,22.59
2016-04-12T17:40:20.333Z,22.66
2016-04-12T17:41:20.352Z,22.59
2016-04-12T17:42:20.386Z,22.48
2016-04-12T17:43:20.388Z,22.45
2016-04-12T17:44:20.406Z,22.57
2016-04-12T17:45:20.425Z,22.47
2016-04-12T17:46:20.458Z,22.57
2016-04-12T17:47:20.461Z,22.53
2016-04-12T17:48:20.495Z,22.47
2016-04-12T17:49:20.499Z,22.44
2016-04-12T17:50:20.830Z,22.41
2016-04-12T17:51:20.550Z,22.47
2016-04-12T17:52:20.569Z,22.39
2016-04-12T17:53:20.618Z,22.39
2016-04-12T17:54:20.605Z,22.38
2016-04-12T17:55:20.624Z,22.36
2016-04-12T17:56:20.657Z,22.35
2016-04-12T17:57:20.676Z,22.29
2016-04-12T17:58:20.693Z,22.33
2016-04-12T17:59:20.712Z,22.28
2016-04-12T18:00:20.716Z,22.26
2016-04-12T18:01:20.812Z,22.23
2016-04-12T18:02:20.783Z,22.25
2016-04-12T18:03:20.801Z,22.26
2016-04-12T18:04:20.804Z,22.26
2016-04-12T18:05:21.198Z,22.17
2016-04-12T18:06:20.841Z,22.17
2016-04-12T18:07:20.875Z,22.15
2016-04-12T18:08:20.877Z,22.15
2016-04-12T18:09:20.880Z,22.22
2016-04-12T18:10:20.930Z,22.18
2016-04-12T18:11:20.947Z,22.22
2016-04-12T18:12:20.950Z,22.14
2016-04-12T18:13:20.984Z,22.14
2016-04-12T18:14:21.003Z,22.2
2016-04-12T18:15:21.084Z,22.18
2016-04-12T18:16:21.055Z,22.17
2016-04-12T18:17:21.074Z,22.13
2016-04-12T18:18:21.091Z,22.14
2016-04-12T18:19:21.110Z,22.18
2016-04-12T18:20:21.488Z,22.02
2016-04-12T18:21:20.990Z,22.1
2016-04-12T18:22:21.165Z,22
2016-04-12T18:23:21.168Z,22.07
2016-04-12T18:24:21.186Z,21.96
2016-04-12T18:25:21.221Z,22.06
2016-04-12T18:26:21.254Z,22.11
2016-04-12T18:27:21.272Z,22.04
2016-04-12T18:28:21.275Z,22.06
2016-04-12T18:29:21.293Z,21.98
2016-04-12T18:30:21.312Z,22.08
2016-04-12T18:31:21.329Z,21.96
2016-04-12T18:32:21.348Z,21.99
2016-04-12T18:33:21.351Z,22
2016-04-12T18:34:21.401Z,21.96
2016-04-12T18:35:21.513Z,22
2016-04-12T18:36:21.406Z,22.02
2016-04-12T18:37:21.456Z,21.95
2016-04-12T18:38:21.442Z,21.95
2016-04-12T18:39:21.476Z,22
2016-04-12T18:40:21.526Z,22
2016-04-12T18:41:21.575Z,21.91
2016-04-12T18:42:21.562Z,21.95
2016-04-12T18:43:21.549Z,21.98
2016-04-12T18:44:21.583Z,21.96
2016-04-12T18:45:21.586Z,21.96
2016-04-12T18:46:21.666Z,21.92
2016-04-12T18:47:21.638Z,21.92
2016-04-12T18:48:21.657Z,21.89
2016-04-12T18:49:21.785Z,21.95
2016-04-12T18:50:21.802Z,21.93
2016-04-12T18:51:21.711Z,21.91
2016-04-12T18:52:21.746Z,21.95
2016-04-12T18:53:21.763Z,21.88
2016-04-12T18:54:21.782Z,21.85
2016-04-12T18:55:21.785Z,21.85
2016-04-12T18:56:21.866Z,21.85
2016-04-12T18:57:21.837Z,21.96
2016-04-12T18:58:21.840Z,21.91
2016-04-12T18:59:21.858Z,21.8
2016-04-12T19:00:21.893Z,21.83
2016-04-12T19:01:21.958Z,21.76
2016-04-12T19:02:21.929Z,21.79
2016-04-12T19:03:21.932Z,21.79
2016-04-12T19:04:21.965Z,21.7
2016-04-12T19:05:22.343Z,21.8
2016-04-12T19:06:22.049Z,21.79
2016-04-12T19:07:22.036Z,21.83
2016-04-12T19:08:22.039Z,21.79
2016-04-12T19:09:22.089Z,21.79
2016-04-12T19:10:22.092Z,21.82
2016-04-12T19:11:22.109Z,21.88
2016-04-12T19:12:22.112Z,21.79
2016-04-12T19:13:22.145Z,21.82
2016-04-12T19:14:22.164Z,21.77
2016-04-12T19:15:22.230Z,21.76
2016-04-12T19:16:22.217Z,21.73
2016-04-12T19:17:22.236Z,21.8
2016-04-12T19:18:22.253Z,21.76
2016-04-12T19:19:22.256Z,21.79
2016-04-12T19:20:22.150Z,21.73
2016-04-12T19:21:22.292Z,21.75
2016-04-12T19:22:22.311Z,21.76
2016-04-12T19:23:22.345Z,21.72
2016-04-12T19:24:22.394Z,21.76
2016-04-12T19:25:22.382Z,21.83
2016-04-12T19:26:22.385Z,21.83
2016-04-12T19:27:22.419Z,21.85
2016-04-12T19:28:22.436Z,21.82
2016-04-12T19:29:22.502Z,21.83
2016-04-12T19:30:22.505Z,21.91
2016-04-12T19:31:22.507Z,21.88
2016-04-12T19:32:22.509Z,21.85
2016-04-12T19:33:22.512Z,21.83
2016-04-12T19:34:22.546Z,21.85
2016-04-12T19:35:22.471Z,21.88
2016-04-12T19:36:22.598Z,21.88
2016-04-12T19:37:22.617Z,21.88
2016-04-12T19:38:22.962Z,21.92
2016-04-12T19:39:22.637Z,21.85
2016-04-12T19:40:22.656Z,21.95
2016-04-12T19:41:22.689Z,21.92
2016-04-12T19:42:22.770Z,21.93
2016-04-12T19:43:22.711Z,21.91
2016-04-12T19:44:22.745Z,21.95
2016-04-12T19:45:22.764Z,21.98
2016-04-12T19:46:22.797Z,21.91
2016-04-12T19:47:22.816Z,21.92
2016-04-12T19:48:22.802Z,21.85
2016-04-12T19:49:22.853Z,21.98
2016-04-12T19:50:22.870Z,21.96
2016-04-12T19:51:22.889Z,21.93
2016-04-12T19:52:22.907Z,21.93
2016-04-12T19:53:22.910Z,21.93
2016-04-12T19:54:22.944Z,21.95
2016-04-12T19:55:22.978Z,21.95
2016-04-12T19:56:23.043Z,22
2016-04-12T19:57:23.061Z,22
2016-04-12T19:58:23.063Z,21.98
2016-04-12T19:59:23.035Z,21.99
2016-04-12T20:00:23.757Z,21.96
2016-04-12T20:01:23.196Z,22.02
2016-04-12T20:02:23.152Z,22.02
2016-04-12T20:03:23.171Z,22
2016-04-12T20:04:23.142Z,21.98
2016-04-12T20:05:23.208Z,21.96
2016-04-12T20:06:23.242Z,21.95
2016-04-12T20:07:23.182Z,21.96
2016-04-12T20:08:23.294Z,21.99
2016-04-12T20:09:23.221Z,21.98
2016-04-12T20:10:23.255Z,21.96
2016-04-12T20:11:23.275Z,21.96
2016-04-12T20:12:23.277Z,21.96
2016-04-12T20:13:23.296Z,21.99
2016-04-12T20:14:23.314Z,21.95
2016-04-12T20:15:23.332Z,21.96
2016-04-12T20:16:23.351Z,22.02
2016-04-12T20:17:23.384Z,21.98
2016-04-12T20:18:23.450Z,21.98
2016-04-12T20:19:23.421Z,21.96
2016-04-12T20:20:23.440Z,21.99
2016-04-12T20:21:23.458Z,21.91
2016-04-12T20:22:23.476Z,21.92
2016-04-12T20:23:23.510Z,21.98
2016-04-12T20:24:23.513Z,21.95
2016-04-12T20:25:23.546Z,21.92
2016-04-12T20:26:23.564Z,21.99
2016-04-12T20:27:23.614Z,21.93
2016-04-12T20:28:23.601Z,21.98
2016-04-12T20:29:23.636Z,21.85
2016-04-12T20:30:23.638Z,21.88
2016-04-12T20:31:23.672Z,21.91
2016-04-12T20:32:23.675Z,21.91
2016-04-12T20:33:23.756Z,21.92
2016-04-12T20:34:23.727Z,21.82
2016-04-12T20:35:23.730Z,21.89
2016-04-12T20:36:23.811Z,21.85
2016-04-12T20:37:23.767Z,21.79
2016-04-12T20:38:23.800Z,21.85
2016-04-12T20:39:23.866Z,21.88
2016-04-12T20:40:23.822Z,21.82
2016-04-12T20:41:23.855Z,21.83
2016-04-12T20:42:23.874Z,21.76
2016-04-12T20:43:23.892Z,21.79
2016-04-12T20:44:23.927Z,21.73
2016-04-12T20:45:24.116Z,21.77
2016-04-12T20:46:23.947Z,21.83
2016-04-12T20:47:24.028Z,21.77
2016-04-12T20:48:24.046Z,21.82
2016-04-12T20:49:24.002Z,21.82
2016-04-12T20:50:24.036Z,21.83
2016-04-12T20:51:24.054Z,21.76
2016-04-12T20:52:24.073Z,21.76
2016-04-12T20:53:24.138Z,21.73
2016-04-12T20:54:24.109Z,21.77
2016-04-12T20:55:24.112Z,21.8
2016-04-12T20:56:24.162Z,21.69
2016-04-12T20:57:24.367Z,21.83
2016-04-12T20:58:24.182Z,21.83
2016-04-12T20:59:24.217Z,21.75
2016-04-12T21:00:24.265Z,21.79
2016-04-12T21:01:24.237Z,21.77
2016-04-12T21:02:24.428Z,21.85
2016-04-12T21:03:24.445Z,21.77
2016-04-12T21:04:24.308Z,21.79
2016-04-12T21:05:24.326Z,21.85
2016-04-12T21:06:24.391Z,21.77
2016-04-12T21:07:24.472Z,21.79
2016-04-12T21:08:24.412Z,21.76
2016-04-12T21:09:24.414Z,21.8
2016-04-12T21:10:24.464Z,21.77
2016-04-12T21:11:24.560Z,21.77
2016-04-12T21:12:24.720Z,21.82
2016-04-12T21:13:24.535Z,21.77
2016-04-12T21:14:24.616Z,21.82
2016-04-12T21:15:26.305Z,21.75
2016-04-12T21:16:24.669Z,21.79
2016-04-12T21:17:24.641Z,21.77
2016-04-12T21:18:24.595Z,21.76
2016-04-12T21:19:24.598Z,21.79
2016-04-12T21:20:24.616Z,21.79
2016-04-12T21:21:24.651Z,21.77
2016-04-12T21:22:24.669Z,21.69
2016-04-12T21:23:24.687Z,21.77
2016-04-12T21:24:24.705Z,21.72
2016-04-12T21:25:24.771Z,21.73
2016-04-12T21:26:24.726Z,21.75
2016-04-12T21:27:24.745Z,21.76
2016-04-12T21:28:24.779Z,21.8
2016-04-12T21:29:24.797Z,21.82
2016-04-12T21:30:24.815Z,21.95
2016-04-12T21:31:24.834Z,22.02
2016-04-12T21:32:24.851Z,22.06
2016-04-12T21:33:24.933Z,22.18
2016-04-12T21:34:24.936Z,22.23
2016-04-12T21:35:24.953Z,22.23
2016-04-12T21:36:24.972Z,22.25
2016-04-12T21:37:24.944Z,22.29
2016-04-12T21:38:24.978Z,22.44
2016-04-12T21:39:24.981Z,22.54
2016-04-12T21:40:24.998Z,22.7
2016-04-12T21:41:25.579Z,22.7
2016-04-12T21:42:25.035Z,22.76
2016-04-12T21:43:25.069Z,22.57
2016-04-12T21:44:25.088Z,22.6
2016-04-12T21:45:25.106Z,22.59
2016-04-12T21:46:25.124Z,22.6
2016-04-12T21:47:25.142Z,22.6
2016-04-12T21:48:25.177Z,22.62
2016-04-12T21:49:25.180Z,22.54
2016-04-12T21:50:25.197Z,22.5
2016-04-12T21:51:25.232Z,22.69
2016-04-12T21:52:25.499Z,22.76
2016-04-12T21:53:25.330Z,22.62
2016-04-12T21:54:25.426Z,22.62
2016-04-12T21:55:25.460Z,22.6
2016-04-12T21:56:25.573Z,22.65
2016-04-12T21:57:25.387Z,22.54
2016-04-12T21:59:24.378Z,22.63
2016-04-12T22:00:24.552Z,22.65
2016-04-12T22:01:29.102Z,22.62
2016-04-12T22:02:24.933Z,22.68
2016-04-12T22:03:25.717Z,22.69
2016-04-12T22:04:24.735Z,22.76
2016-04-12T22:05:26.457Z,22.68
2016-04-12T22:06:26.615Z,22.7
2016-04-12T22:07:28.415Z,22.68
2016-04-12T22:08:27.917Z,22.63
2016-04-12T22:09:25.076Z,22.7
2016-04-12T22:10:24.861Z,22.68
2016-04-12T22:11:24.613Z,22.62
2016-04-12T22:12:25.100Z,22.6
2016-04-12T22:13:24.900Z,22.73
2016-04-12T22:14:25.090Z,22.65
